createdAt,value
2022-12-07T00:01:46.203Z,1.88
2022-12-07T00:04:15.855Z,0.88
2022-12-07T00:06:45.243Z,1.15
2022-12-07T00:09:15.606Z,1.33
2022-12-07T00:11:44.572Z,1.67
2022-12-07T00:14:15.501Z,1.35
2022-12-07T00:16:44.893Z,1.90
2022-12-07T00:19:14.471Z,1.20
2022-12-07T00:21:42.669Z,1.77
2022-12-07T00:24:13.597Z,1.27
2022-12-07T00:26:42.807Z,1.10
2022-12-07T00:29:16.636Z,1.40
2022-12-07T00:34:16.772Z,1.50
2022-12-07T00:36:44.831Z,1.20
2022-12-07T00:39:13.209Z,1.52
2022-12-07T00:41:41.080Z,1.30
2022-12-07T00:44:08.974Z,1.33
2022-12-07T00:46:38.243Z,1.20
2022-12-07T00:49:06.311Z,0.93
2022-12-07T00:51:34.302Z,1.15
2022-12-07T00:54:02.208Z,1.40
2022-12-07T00:56:31.203Z,0.57
2022-12-07T00:59:01.010Z,1.13
2022-12-07T01:01:31.509Z,1.08
2022-12-07T01:04:02.151Z,0.95
2022-12-07T01:06:31.728Z,0.95
2022-12-07T01:09:00.025Z,0.80
2022-12-07T01:11:30.519Z,1.60
2022-12-07T01:14:00.298Z,1.10
2022-12-07T01:16:30.493Z,1.02
2022-12-07T01:19:01.115Z,1.45
2022-12-07T01:21:31.519Z,1.25
2022-12-07T01:24:00.013Z,1.00
2022-12-07T01:26:28.137Z,1.10
2022-12-07T01:28:56.831Z,0.90
2022-12-07T01:31:26.488Z,1.27
2022-12-07T01:33:56.884Z,1.08
2022-12-07T01:36:27.746Z,0.80
2022-12-07T01:38:57.729Z,0.85
2022-12-07T01:41:27.130Z,1.75
2022-12-07T01:44:14.281Z,1.08
2022-12-07T01:46:43.825Z,0.88
2022-12-07T01:49:16.954Z,1.00
2022-12-07T01:51:48.411Z,0.70
2022-12-07T01:54:18.094Z,1.73
2022-12-07T01:56:51.995Z,1.10
2022-12-07T01:59:22.984Z,0.95
2022-12-07T02:01:50.915Z,1.10
2022-12-07T02:04:19.955Z,1.00
2022-12-07T02:06:49.496Z,1.30
2022-12-07T02:09:17.597Z,1.00
2022-12-07T02:11:45.602Z,1.17
2022-12-07T02:14:13.495Z,1.27
2022-12-07T02:16:54.919Z,1.98
2022-12-07T02:19:53.481Z,0.90
2022-12-07T02:22:45.271Z,1.60
2022-12-07T02:25:24.430Z,2.22
2022-12-07T02:27:58.852Z,1.63
2022-12-07T02:30:33.079Z,1.17
2022-12-07T02:33:05.779Z,2.03
2022-12-07T02:35:39.008Z,1.45
2022-12-07T02:38:16.760Z,1.30
2022-12-07T02:40:50.252Z,1.25
2022-12-07T02:45:53.852Z,1.40
2022-12-07T02:48:23.356Z,1.45
2022-12-07T02:50:52.673Z,2.22
2022-12-07T02:53:34.242Z,1.38
2022-12-07T02:56:07.768Z,1.23
2022-12-07T03:01:25.226Z,1.80
2022-12-07T03:04:05.587Z,1.02
2022-12-07T03:06:38.740Z,1.10
2022-12-07T03:09:16.889Z,1.08
2022-12-07T03:11:50.562Z,1.17
2022-12-07T03:14:25.331Z,1.13
2022-12-07T03:16:59.345Z,0.85
2022-12-07T03:19:29.145Z,0.90
2022-12-07T03:22:00.124Z,0.73
2022-12-07T03:24:31.207Z,1.40
2022-12-07T03:27:08.414Z,1.42
2022-12-07T03:29:40.578Z,1.00
2022-12-07T03:32:16.800Z,0.68
2022-12-07T03:34:49.187Z,1.05
2022-12-07T03:37:25.308Z,1.33
2022-12-07T03:40:04.558Z,1.05
2022-12-07T03:42:34.663Z,0.98
2022-12-07T03:45:04.514Z,1.02
2022-12-07T03:47:37.047Z,0.88
2022-12-07T03:50:10.628Z,0.65
2022-12-07T03:55:17.427Z,1.15
2022-12-07T03:57:48.299Z,0.95
2022-12-07T04:00:16.673Z,0.52
2022-12-07T04:02:46.400Z,1.13
2022-12-07T04:05:14.561Z,0.63
2022-12-07T04:07:43.312Z,0.77
2022-12-07T04:10:12.456Z,1.00
2022-12-07T04:12:40.318Z,1.08
2022-12-07T04:15:09.942Z,1.05
2022-12-07T04:17:38.177Z,0.50
2022-12-07T04:20:10.199Z,0.60
2022-12-07T04:22:38.223Z,0.93
2022-12-07T04:25:07.344Z,1.10
2022-12-07T04:27:35.292Z,0.63
2022-12-07T04:30:03.497Z,0.93
2022-12-07T04:32:31.691Z,1.23
2022-12-07T04:34:59.539Z,1.15
2022-12-07T04:37:28.712Z,1.52
2022-12-07T04:39:56.613Z,0.70
2022-12-07T04:42:24.480Z,1.35
2022-12-07T04:44:52.939Z,0.88
2022-12-07T04:47:20.889Z,0.80
2022-12-07T04:49:48.786Z,2.13
2022-12-07T04:52:16.656Z,0.93
2022-12-07T04:54:45.888Z,0.60
2022-12-07T04:57:13.728Z,1.15
2022-12-07T04:59:45.512Z,1.00
2022-12-07T05:02:14.172Z,1.00
2022-12-07T05:04:42.145Z,1.30
2022-12-07T05:07:10.064Z,1.10
2022-12-07T05:09:37.997Z,1.27
2022-12-07T05:12:07.347Z,1.55
2022-12-07T05:14:35.223Z,1.33
2022-12-07T05:17:03.143Z,1.30
2022-12-07T05:19:31.045Z,1.02
2022-12-07T05:21:59.145Z,0.60
2022-12-07T05:24:27.039Z,0.55
2022-12-07T05:26:55.228Z,0.73
2022-12-07T05:29:24.468Z,0.93
2022-12-07T05:31:52.439Z,1.10
2022-12-07T05:34:20.596Z,0.82
2022-12-07T05:36:48.729Z,0.88
2022-12-07T05:39:16.725Z,1.13
2022-12-07T05:42:01.892Z,1.25
2022-12-07T05:44:31.098Z,0.90
2022-12-07T05:46:59.180Z,1.52
2022-12-07T05:49:27.062Z,1.20
2022-12-07T05:51:54.938Z,1.20
2022-12-07T05:54:23.034Z,1.02
2022-12-07T05:56:50.974Z,1.33
2022-12-07T05:59:24.089Z,1.85
2022-12-07T06:01:54.622Z,2.08
2022-12-07T06:04:23.979Z,1.35
2022-12-07T06:06:52.008Z,1.92
2022-12-07T06:09:20.866Z,1.45
2022-12-07T06:12:06.222Z,1.60
2022-12-07T06:14:34.227Z,1.73
2022-12-07T06:17:03.827Z,1.73
2022-12-07T06:19:32.014Z,1.42
2022-12-07T06:22:00.506Z,1.65
2022-12-07T06:24:28.481Z,0.85
2022-12-07T06:26:56.723Z,0.90
2022-12-07T06:29:24.610Z,1.23
2022-12-07T06:31:53.266Z,1.90
2022-12-07T06:34:24.408Z,1.50
2022-12-07T06:36:54.526Z,0.90
2022-12-07T06:39:24.629Z,1.13
2022-12-07T06:41:53.802Z,1.05
2022-12-07T06:44:22.644Z,1.10
2022-12-07T06:46:50.695Z,1.40
2022-12-07T06:49:18.806Z,1.20
2022-12-07T06:51:48.319Z,1.38
2022-12-07T06:54:17.626Z,0.98
2022-12-07T06:56:45.600Z,1.20
2022-12-07T06:59:13.544Z,0.95
2022-12-07T07:01:41.442Z,0.70
2022-12-07T07:04:09.396Z,1.33
2022-12-07T07:06:37.288Z,1.42
2022-12-07T07:09:06.760Z,1.00
2022-12-07T07:11:34.779Z,0.57
2022-12-07T07:14:03.589Z,0.95
2022-12-07T07:16:32.369Z,1.17
2022-12-07T07:19:00.422Z,2.08
2022-12-07T07:21:28.456Z,1.08
2022-12-07T07:23:57.439Z,0.88
2022-12-07T07:26:26.720Z,0.85
2022-12-07T07:28:54.637Z,1.17
2022-12-07T07:31:22.600Z,1.35
2022-12-07T07:33:50.552Z,1.20
2022-12-07T07:36:19.648Z,1.05
2022-12-07T07:38:47.579Z,1.10
2022-12-07T07:41:15.488Z,2.33
2022-12-07T07:43:44.703Z,1.95
2022-12-07T07:46:12.689Z,1.80
2022-12-07T07:48:40.662Z,1.17
2022-12-07T07:51:09.378Z,1.15
2022-12-07T07:53:37.257Z,1.20
2022-12-07T07:56:05.563Z,1.30
2022-12-07T07:58:33.626Z,1.70
2022-12-07T08:01:07.203Z,1.48
2022-12-07T08:03:35.679Z,1.30
2022-12-07T08:06:04.671Z,1.48
2022-12-07T08:08:32.740Z,1.33
2022-12-07T08:11:02.159Z,1.50
2022-12-07T08:13:31.582Z,2.20
2022-12-07T08:16:00.552Z,1.65
2022-12-07T08:18:29.827Z,1.58
2022-12-07T08:21:02.251Z,1.55
2022-12-07T08:23:37.484Z,2.00
2022-12-07T08:26:09.141Z,1.08
2022-12-07T08:28:37.520Z,1.85
2022-12-07T08:31:07.955Z,1.60
2022-12-07T08:33:37.710Z,1.42
2022-12-07T08:36:07.353Z,1.73
2022-12-07T08:38:36.545Z,1.50
2022-12-07T08:41:05.175Z,1.55
2022-12-07T08:43:33.891Z,1.80
2022-12-07T08:46:08.751Z,2.15
2022-12-07T08:48:42.585Z,2.03
2022-12-07T08:51:10.590Z,1.75
2022-12-07T08:53:40.098Z,2.00
2022-12-07T08:56:09.645Z,1.75
2022-12-07T08:58:39.182Z,1.70
2022-12-07T09:01:07.140Z,1.30
2022-12-07T09:03:35.532Z,2.10
2022-12-07T09:06:05.389Z,1.83
2022-12-07T09:08:36.907Z,1.70
2022-12-07T09:11:04.886Z,1.75
2022-12-07T09:13:32.739Z,1.77
2022-12-07T09:16:00.670Z,1.40
2022-12-07T09:18:28.614Z,2.50
2022-12-07T09:20:56.508Z,1.20
2022-12-07T09:23:25.972Z,0.98
2022-12-07T09:25:53.882Z,1.00
2022-12-07T09:28:21.934Z,1.00
2022-12-07T09:31:22.114Z,0.90
2022-12-07T09:33:38.568Z,0.80
2022-12-07T09:36:07.161Z,0.90
2022-12-07T09:38:36.460Z,1.13
2022-12-07T09:41:08.288Z,1.23
2022-12-07T09:43:38.566Z,0.60
2022-12-07T09:46:15.319Z,1.10
2022-12-07T09:48:45.863Z,0.82
2022-12-07T09:51:23.249Z,1.00
2022-12-07T09:53:56.143Z,1.17
2022-12-07T09:56:25.431Z,0.77
2022-12-07T09:58:59.516Z,1.27
2022-12-07T10:01:31.460Z,1.42
2022-12-07T10:04:03.966Z,0.57
2022-12-07T10:06:31.891Z,1.50
2022-12-07T10:09:01.157Z,1.60
2022-12-07T10:11:29.052Z,1.52
2022-12-07T10:13:56.979Z,1.85
2022-12-07T10:16:41.469Z,1.52
2022-12-07T10:19:26.753Z,1.20
2022-12-07T10:22:12.586Z,1.48
2022-12-07T10:24:43.884Z,1.70
2022-12-07T10:27:21.196Z,0.98
2022-12-07T10:29:52.163Z,1.52
2022-12-07T10:32:35.009Z,1.13
2022-12-07T10:35:23.664Z,1.45
2022-12-07T10:37:53.560Z,1.40
2022-12-07T10:40:30.839Z,1.92
2022-12-07T10:43:07.365Z,2.00
2022-12-07T10:45:52.012Z,1.40
2022-12-07T10:48:40.845Z,1.38
2022-12-07T10:51:18.604Z,1.58
2022-12-07T10:53:54.964Z,1.88
2022-12-07T10:56:51.154Z,1.90
2022-12-07T10:59:39.473Z,1.70
2022-12-07T11:02:25.401Z,1.05
2022-12-07T11:05:09.281Z,1.25
2022-12-07T11:10:18.202Z,0.98
2022-12-07T11:13:02.360Z,1.13
2022-12-07T11:15:41.299Z,1.50
2022-12-07T11:18:26.314Z,2.10
2022-12-07T11:21:37.915Z,1.23
2022-12-07T11:24:12.819Z,1.55
2022-12-07T11:27:00.917Z,1.60
2022-12-07T11:29:49.892Z,1.25
2022-12-07T11:32:36.677Z,1.23
2022-12-07T11:35:20.016Z,1.13
2022-12-07T11:37:49.045Z,1.60
2022-12-07T11:40:22.924Z,1.60
2022-12-07T11:42:58.147Z,0.98
2022-12-07T11:45:30.975Z,1.15
2022-12-07T11:48:03.487Z,1.40
2022-12-07T11:50:37.722Z,1.23
2022-12-07T11:53:12.539Z,1.33
2022-12-07T11:55:45.510Z,1.08
2022-12-07T11:58:39.284Z,1.55
2022-12-07T12:03:52.557Z,1.10
2022-12-07T12:06:22.581Z,0.68
2022-12-07T12:15:06.764Z,1.48
2022-12-07T12:17:53.279Z,1.27
2022-12-07T12:20:26.251Z,1.35
2022-12-07T12:22:58.192Z,1.20
2022-12-07T12:25:30.644Z,1.10
2022-12-07T12:28:01.275Z,1.20
2022-12-07T12:30:37.317Z,1.05
2022-12-07T12:33:22.737Z,1.65
2022-12-07T12:36:21.807Z,1.33
2022-12-07T12:39:11.794Z,1.27
2022-12-07T12:42:10.759Z,1.10
2022-12-07T12:45:08.052Z,1.30
2022-12-07T12:48:01.450Z,1.40
2022-12-07T12:50:35.534Z,1.50
2022-12-07T12:53:18.025Z,1.27
2022-12-07T12:56:13.377Z,1.00
2022-12-07T12:58:47.041Z,0.93
2022-12-07T13:01:49.313Z,1.20
2022-12-07T13:04:40.493Z,1.02
2022-12-07T13:07:35.643Z,1.00
2022-12-07T13:10:05.337Z,1.13
2022-12-07T13:12:34.004Z,1.13
2022-12-07T13:15:04.434Z,1.30
2022-12-07T13:18:01.660Z,1.30
2022-12-07T13:20:46.409Z,1.08
2022-12-07T13:23:20.207Z,0.98
2022-12-07T13:25:56.020Z,0.80
2022-12-07T13:28:28.195Z,1.60
2022-12-07T13:31:05.509Z,1.08
2022-12-07T13:33:37.372Z,0.77
2022-12-07T13:36:06.724Z,0.90
2022-12-07T13:38:39.854Z,1.33
2022-12-07T13:41:16.702Z,0.90
2022-12-07T13:43:47.471Z,0.98
2022-12-07T13:46:18.328Z,0.90
2022-12-07T13:48:48.614Z,0.60
2022-12-07T13:51:27.776Z,0.47
2022-12-07T13:54:22.218Z,0.50
2022-12-07T13:56:56.578Z,0.55
2022-12-07T13:59:27.802Z,0.50
2022-12-07T14:01:56.242Z,0.75
2022-12-07T14:04:37.237Z,0.65
2022-12-07T14:07:25.950Z,0.80
2022-12-07T14:10:04.076Z,0.47
2022-12-07T14:12:33.562Z,0.63
2022-12-07T14:15:03.549Z,0.80
2022-12-07T14:17:31.995Z,0.57
2022-12-07T14:20:01.286Z,1.00
2022-12-07T14:22:32.574Z,0.93
2022-12-07T14:25:04.232Z,0.95
2022-12-07T14:27:37.128Z,1.13
2022-12-07T14:30:06.863Z,1.13
2022-12-07T14:32:37.856Z,1.20
2022-12-07T14:35:12.969Z,0.93
2022-12-07T14:37:43.666Z,1.15
2022-12-07T14:40:15.448Z,1.10
2022-12-07T14:42:45.203Z,1.75
2022-12-07T14:45:16.935Z,0.95
2022-12-07T14:53:33.451Z,1.13
2022-12-07T14:56:03.076Z,0.73
2022-12-07T14:58:30.999Z,0.60
2022-12-07T15:00:58.911Z,0.80
2022-12-07T15:03:26.892Z,0.50
2022-12-07T15:05:54.927Z,0.90
2022-12-07T15:08:23.106Z,0.60
2022-12-07T15:10:51.155Z,3.72
2022-12-07T15:13:38.019Z,0.85
2022-12-07T15:16:10.380Z,1.10
2022-12-07T15:18:39.132Z,0.80
2022-12-07T15:21:14.375Z,1.48
2022-12-07T15:23:42.556Z,1.17
2022-12-07T15:26:12.342Z,1.52
2022-12-07T15:28:41.962Z,1.33
2022-12-07T15:31:39.129Z,0.60
2022-12-07T15:34:01.587Z,0.88
2022-12-07T15:36:31.319Z,1.30
2022-12-07T15:39:14.187Z,1.08
2022-12-07T15:41:42.799Z,1.30
2022-12-07T15:44:30.926Z,0.85
2022-12-07T15:46:59.450Z,1.58
2022-12-07T15:49:28.488Z,1.02
2022-12-07T15:51:56.679Z,1.30
2022-12-07T15:54:26.347Z,1.20
2022-12-07T15:56:54.808Z,1.13
2022-12-07T15:59:24.456Z,1.08
2022-12-07T16:01:52.836Z,1.08
2022-12-07T16:04:21.180Z,1.30
2022-12-07T16:06:49.175Z,1.00
2022-12-07T16:09:17.331Z,1.10
2022-12-07T16:11:45.372Z,1.25
2022-12-07T16:14:13.364Z,1.00
2022-12-07T16:16:42.978Z,1.00
2022-12-07T16:19:11.981Z,1.17
2022-12-07T16:21:40.227Z,1.20
2022-12-07T16:24:09.638Z,1.27
2022-12-07T16:26:37.854Z,1.02
2022-12-07T16:29:05.766Z,1.23
2022-12-07T16:31:34.824Z,1.17
2022-12-07T16:34:04.812Z,1.00
2022-12-07T16:39:20.661Z,1.40
2022-12-07T16:41:48.613Z,0.75
2022-12-07T16:44:16.553Z,1.20
2022-12-07T16:46:44.934Z,0.90
2022-12-07T16:49:15.947Z,0.90
2022-12-07T16:51:44.161Z,1.02
2022-12-07T16:54:13.266Z,0.63
2022-12-07T16:56:41.448Z,1.35
2022-12-07T16:59:09.606Z,0.90
2022-12-07T17:01:37.637Z,1.27
2022-12-07T17:04:05.795Z,1.25
2022-12-07T17:06:35.133Z,1.27
2022-12-07T17:09:03.058Z,1.83
2022-12-07T17:11:32.835Z,1.92
2022-12-07T17:14:18.976Z,1.70
2022-12-07T17:16:47.164Z,2.50
2022-12-07T17:19:17.978Z,2.30
2022-12-07T17:21:47.485Z,4.03
2022-12-07T17:24:17.852Z,3.80
2022-12-07T17:26:47.239Z,3.60
2022-12-07T17:29:17.176Z,3.05
2022-12-07T17:31:50.889Z,3.13
2022-12-07T17:34:19.634Z,2.60
2022-12-07T17:36:49.009Z,2.33
2022-12-07T17:39:19.182Z,1.35
2022-12-07T17:42:04.470Z,1.42
2022-12-07T17:44:32.901Z,1.20
2022-12-07T17:47:02.769Z,0.95
2022-12-07T17:49:31.155Z,1.05
2022-12-07T17:52:18.026Z,1.00
2022-12-07T17:54:45.978Z,0.45
2022-12-07T17:57:14.035Z,0.80
2022-12-07T17:59:42.614Z,0.50
2022-12-07T18:02:11.514Z,0.63
2022-12-07T18:04:40.179Z,0.88
2022-12-07T18:07:10.191Z,0.98
2022-12-07T18:09:38.187Z,1.63
2022-12-07T18:12:07.013Z,2.17
2022-12-07T18:14:35.293Z,2.00
2022-12-07T18:17:03.460Z,2.25
2022-12-07T18:19:31.358Z,3.20
2022-12-07T18:21:59.258Z,2.85
2022-12-07T18:24:36.272Z,1.58
2022-12-07T18:27:05.271Z,1.52
2022-12-07T18:29:33.232Z,1.17
2022-12-07T18:32:01.560Z,1.17
2022-12-07T18:34:30.549Z,1.42
2022-12-07T18:36:58.850Z,0.90
2022-12-07T18:39:33.341Z,1.05
2022-12-07T18:42:01.906Z,1.30
2022-12-07T18:44:30.149Z,1.15
2022-12-07T18:46:58.061Z,1.15
2022-12-07T18:49:25.972Z,0.85
2022-12-07T18:51:53.868Z,1.38
2022-12-07T18:54:21.924Z,1.20
2022-12-07T18:56:51.226Z,1.10
2022-12-07T18:59:36.693Z,1.52
2022-12-07T19:02:04.795Z,2.03
2022-12-07T19:04:33.163Z,2.08
2022-12-07T19:07:01.252Z,2.25
2022-12-07T19:09:29.194Z,2.40
2022-12-07T19:12:03.147Z,2.05
2022-12-07T19:14:33.052Z,2.10
2022-12-07T19:17:03.406Z,2.15
2022-12-07T19:19:33.378Z,1.48
2022-12-07T19:22:01.581Z,1.52
2022-12-07T19:24:30.097Z,1.88
2022-12-07T19:27:00.603Z,1.27
2022-12-07T19:29:31.232Z,1.85
2022-12-07T19:32:00.143Z,1.25
2022-12-07T19:34:28.311Z,1.95
2022-12-07T19:36:56.221Z,0.93
2022-12-07T19:39:24.347Z,0.90
2022-12-07T19:41:52.419Z,0.75
2022-12-07T19:44:25.396Z,0.77
2022-12-07T19:46:58.389Z,0.63
2022-12-07T19:49:32.436Z,0.90
2022-12-07T19:52:02.635Z,1.27
2022-12-07T19:54:32.446Z,1.35
2022-12-07T19:57:00.630Z,1.80
2022-12-07T19:59:30.695Z,3.45
2022-12-07T20:01:58.892Z,3.58
2022-12-07T20:04:30.313Z,2.90
2022-12-07T20:07:00.519Z,2.38
2022-12-07T20:09:28.795Z,2.47
2022-12-07T20:12:14.040Z,2.05
2022-12-07T20:14:43.417Z,1.90
2022-12-07T20:17:11.534Z,1.90
2022-12-07T20:19:39.907Z,2.08
2022-12-07T20:22:09.089Z,1.75
2022-12-07T20:24:37.017Z,2.08
2022-12-07T20:27:05.994Z,2.65
2022-12-07T20:29:34.557Z,2.40
2022-12-07T20:32:04.370Z,2.58
2022-12-07T20:34:32.337Z,2.50
2022-12-07T20:37:00.293Z,2.72
2022-12-07T20:39:28.209Z,2.45
2022-12-07T20:42:13.529Z,2.50
2022-12-07T20:44:41.494Z,2.63
2022-12-07T20:47:11.154Z,2.45
2022-12-07T20:49:40.074Z,3.25
2022-12-07T20:52:08.446Z,3.10
2022-12-07T20:54:37.306Z,2.85
2022-12-07T20:57:05.249Z,2.72
2022-12-07T20:59:36.647Z,2.92
2022-12-07T21:02:12.888Z,2.50
2022-12-07T21:04:41.459Z,3.30
2022-12-07T21:07:09.776Z,3.25
2022-12-07T21:09:38.210Z,3.42
2022-12-07T21:12:11.125Z,2.60
2022-12-07T21:14:40.868Z,2.63
2022-12-07T21:17:08.991Z,2.78
2022-12-07T21:19:38.445Z,3.10
2022-12-07T21:22:06.459Z,3.03
2022-12-07T21:24:34.920Z,2.13
2022-12-07T21:27:03.009Z,3.17
2022-12-07T21:29:43.358Z,3.10
2022-12-07T21:32:13.462Z,2.92
2022-12-07T21:34:43.006Z,3.60
2022-12-07T21:37:11.209Z,2.97
2022-12-07T21:39:39.219Z,2.83
2022-12-07T21:42:07.252Z,3.22
2022-12-07T21:44:35.503Z,3.33
2022-12-07T21:47:03.735Z,3.22
2022-12-07T21:49:34.670Z,2.83
2022-12-07T21:52:04.537Z,2.50
2022-12-07T21:54:32.687Z,2.90
2022-12-07T21:57:00.780Z,2.97
2022-12-07T21:59:29.483Z,2.42
2022-12-07T22:01:57.728Z,2.72
2022-12-07T22:04:27.401Z,2.83
2022-12-07T22:06:56.989Z,3.08
2022-12-07T22:09:27.588Z,3.42
2022-12-07T22:11:55.654Z,3.40
2022-12-07T22:14:41.348Z,2.47
2022-12-07T22:17:09.316Z,3.60
2022-12-07T22:19:37.243Z,2.75
2022-12-07T22:22:05.248Z,2.72
2022-12-07T22:24:34.922Z,2.30
2022-12-07T22:27:03.072Z,1.60
2022-12-07T22:29:31.180Z,1.42
2022-12-07T22:31:59.093Z,2.13
2022-12-07T22:34:27.005Z,1.08
2022-12-07T22:36:55.266Z,1.27
2022-12-07T22:39:23.181Z,1.00
2022-12-07T22:41:52.568Z,1.17
2022-12-07T22:44:20.446Z,1.10
2022-12-07T22:46:48.397Z,1.23
2022-12-07T22:49:16.480Z,1.52
2022-12-07T22:51:44.988Z,1.85
2022-12-07T22:54:16.646Z,2.47
2022-12-07T22:56:45.596Z,3.50
2022-12-07T22:59:15.222Z,3.15
2022-12-07T23:01:43.186Z,2.80
2022-12-07T23:04:11.410Z,3.50
2022-12-07T23:06:39.605Z,2.55
2022-12-07T23:09:11.248Z,2.47
2022-12-07T23:12:00.099Z,3.45
2022-12-07T23:14:32.161Z,3.38
2022-12-07T23:17:00.563Z,3.15
2022-12-07T23:19:29.047Z,2.80
2022-12-07T23:21:57.364Z,3.20
2022-12-07T23:24:25.294Z,2.25
2022-12-07T23:26:53.420Z,1.75
2022-12-07T23:29:21.368Z,2.13
2022-12-07T23:31:51.593Z,2.03
2022-12-07T23:34:19.594Z,2.40
2022-12-07T23:36:47.533Z,2.22
2022-12-07T23:39:15.704Z,1.08
2022-12-07T23:41:43.809Z,1.77
2022-12-07T23:44:12.689Z,1.40
2022-12-07T23:46:40.845Z,1.13
2022-12-07T23:49:12.870Z,1.20
2022-12-07T23:51:41.554Z,0.90
2022-12-07T23:54:09.432Z,0.95
2022-12-07T23:56:37.340Z,0.65
2022-12-07T23:59:05.937Z,1.00
